Time;durP1;ratioP1;P1;durP2;ratioP2;P2;SDS_P1;SDS_P2;PMS_P1;PMS_P2;Temp;Humidity;BMP_temperature;BMP_pressure;BME280_temperature;BME280_humidity;BME280_pressure;Samples;Min_cycle;Max_cycle;Signal;HPM_P1;HPM_P2
2022/04/01 00:00:14;;;;;;;20.65;10.60;;;6.90;99.90;;;;;;5095864;28;20036;-68
2022/04/01 00:02:44;;;;;;;20.23;11.77;;;6.90;99.90;;;;;;5083040;28;20463;-69
2022/04/01 00:05:11;;;;;;;19.50;11.57;;;6.90;99.90;;;;;;5091839;28;20067;-68
2022/04/01 00:07:40;;;;;;;19.27;11.50;;;6.90;99.90;;;;;;5091672;28;20097;-67
2022/04/01 00:10:08;;;;;;;20.83;11.68;;;6.80;99.90;;;;;;5093408;28;20093;-68
2022/04/01 00:12:43;;;;;;;20.58;11.07;;;6.80;99.90;;;;;;5085956;28;20063;-68
2022/04/01 00:15:12;;;;;;;21.08;11.85;;;6.80;99.90;;;;;;5091872;28;20032;-68
2022/04/01 00:17:40;;;;;;;22.38;12.95;;;6.90;99.90;;;;;;5096080;28;20028;-68
2022/04/01 00:20:09;;;;;;;22.23;13.02;;;6.80;99.90;;;;;;5097937;28;20044;-68
2022/04/01 00:22:37;;;;;;;22.17;13.25;;;6.80;99.90;;;;;;5071382;28;20111;-67
2022/04/01 00:25:05;;;;;;;23.75;13.20;;;6.80;99.90;;;;;;5071551;28;20052;-68
2022/04/01 00:27:32;;;;;;;20.80;12.13;;;6.80;99.90;;;;;;5085905;28;20462;-67
2022/04/01 00:29:59;;;;;;;23.08;12.75;;;6.80;99.90;;;;;;5083042;28;20060;-67
2022/04/01 00:32:28;;;;;;;21.75;11.30;;;6.80;99.90;;;;;;5090655;28;20097;-67
2022/04/01 00:34:55;;;;;;;19.05;10.07;;;6.80;99.90;;;;;;5091657;28;20054;-67
2022/04/01 00:37:22;;;;;;;15.60;8.70;;;6.70;99.90;;;;;;5082814;28;20500;-67
2022/04/01 00:39:49;;;;;;;11.73;6.80;;;6.70;99.90;;;;;;5091564;28;20577;-67
2022/04/01 00:42:17;;;;;;;10.43;4.25;;;6.60;99.90;;;;;;5090952;28;20044;-67
2022/04/01 00:44:44;;;;;;;7.07;4.00;;;6.50;99.90;;;;;;5079394;28;20044;-67
2022/04/01 00:47:18;;;;;;;6.45;4.30;;;6.40;99.90;;;;;;5069705;28;20049;-67
2022/04/01 00:49:46;;;;;;;5.55;3.55;;;6.30;99.90;;;;;;5070016;28;20052;-67
2022/04/01 00:52:17;;;;;;;5.97;3.40;;;6.30;99.90;;;;;;5074684;28;20044;-67
2022/04/01 00:54:45;;;;;;;4.43;2.70;;;6.20;99.90;;;;;;5082943;28;20047;-67
2022/04/01 00:57:14;;;;;;;5.40;2.85;;;6.20;99.90;;;;;;5073081;28;20484;-67
2022/04/01 00:59:45;;;;;;;3.58;2.17;;;6.10;99.90;;;;;;5072997;28;20052;-68
2022/04/01 01:02:16;;;;;;;2.63;1.65;;;6.00;99.90;;;;;;5079261;28;20068;-67
2022/04/01 01:04:45;;;;;;;3.03;1.77;;;6.00;99.90;;;;;;5083410;28;20037;-67
2022/04/01 01:07:14;;;;;;;2.40;1.67;;;5.90;99.90;;;;;;5071044;28;20048;-67
2022/04/01 01:09:44;;;;;;;3.28;1.75;;;5.90;99.90;;;;;;5070983;28;20119;-67
2022/04/01 01:12:11;;;;;;;3.45;1.88;;;5.90;99.90;;;;;;5085760;28;20040;-67
2022/04/01 01:14:40;;;;;;;5.30;1.90;;;5.80;99.90;;;;;;5086209;28;20040;-68
2022/04/01 01:17:12;;;;;;;2.53;1.50;;;5.80;99.90;;;;;;5072930;28;20397;-67
2022/04/01 01:19:40;;;;;;;2.05;1.38;;;5.80;99.90;;;;;;5072544;28;20040;-67
2022/04/01 01:22:08;;;;;;;1.65;1.13;;;5.80;99.90;;;;;;5082754;28;20048;-68
2022/04/01 01:24:38;;;;;;;2.13;1.65;;;5.70;99.90;;;;;;5072752;28;20040;-68
2022/04/01 01:27:07;;;;;;;2.70;1.70;;;5.70;99.90;;;;;;5072996;28;20456;-67
2022/04/01 01:29:39;;;;;;;2.58;1.23;;;5.70;99.90;;;;;;5091420;28;20032;-67
2022/04/01 01:32:12;;;;;;;2.30;1.77;;;5.70;99.90;;;;;;5061503;28;20385;-67
2022/04/01 01:35:29;;;;;;;3.33;2.08;;;5.60;99.90;;;;;;5124292;22;20050;-70
2022/04/01 01:37:56;;;;;;;2.83;1.60;;;5.60;99.90;;;;;;5127978;28;20073;-70
2022/04/01 01:40:24;;;;;;;1.70;1.40;;;5.60;99.90;;;;;;5109449;28;20039;-70
2022/04/01 01:42:50;;;;;;;1.80;1.35;;;5.60;99.90;;;;;;5130005;27;20069;-70
2022/04/01 01:45:19;;;;;;;2.17;1.42;;;5.60;99.90;;;;;;5104412;28;20046;-70
2022/04/01 01:47:46;;;;;;;2.17;1.55;;;5.60;99.90;;;;;;5114900;28;20050;-70
2022/04/01 01:55:44;;;;;;;2.05;1.42;;;5.60;99.90;;;;;;5116759;27;20107;-70
2022/04/01 01:58:11;;;;;;;;;;;5.60;99.90;;;;;;5115545;27;20039;-70
2022/04/01 02:00:39;;;;;;;2.08;1.25;;;5.60;99.90;;;;;;5099652;28;19953;-70
2022/04/01 02:03:06;;;;;;;1.90;1.50;;;5.60;99.90;;;;;;5133746;27;20043;-70
2022/04/01 02:05:34;;;;;;;2.45;1.42;;;5.60;99.90;;;;;;5135136;27;20046;-70
2022/04/01 02:08:05;;;;;;;2.55;1.20;;;5.50;99.90;;;;;;5129282;27;20067;-70
2022/04/01 02:10:33;;;;;;;2.85;1.60;;;5.50;99.90;;;;;;5110527;27;20047;-70
2022/04/01 02:13:01;;;;;;;3.22;1.35;;;5.50;99.90;;;;;;5116110;27;20515;-70
2022/04/01 02:15:28;;;;;;;2.90;1.67;;;5.50;99.90;;;;;;5130312;27;20522;-71
2022/04/01 02:17:55;;;;;;;3.85;1.33;;;5.60;99.90;;;;;;5090828;27;20035;-70
2022/04/01 02:20:22;;;;;;;5.05;1.52;;;5.60;99.90;;;;;;5116422;27;20039;-70
2022/04/01 02:22:50;;;;;;;2.45;1.50;;;5.60;99.90;;;;;;5115798;27;20411;-70
2022/04/01 02:25:19;;;;;;;4.07;1.80;;;5.60;99.90;;;;;;5105502;28;20059;-70
2022/04/01 02:27:46;;;;;;;1.67;1.13;;;5.60;99.90;;;;;;5112257;27;20050;-70
2022/04/01 02:30:13;;;;;;;;;;;5.70;99.90;;;;;;5116609;27;20047;-70
2022/04/01 02:33:03;;;;;;;2.38;1.52;;;5.60;99.90;;;;;;5133240;27;19964;-70
2022/04/01 02:35:43;;;;;;;1.73;1.27;;;5.60;99.90;;;;;;5099560;28;20043;-70
2022/04/01 02:38:09;;;;;;;2.80;1.40;;;5.70;99.90;;;;;;5133753;27;20047;-70
2022/04/01 02:40:37;;;;;;;;;;;5.70;99.90;;;;;;5116526;27;20040;-70
2022/04/01 02:43:04;;;;;;;1.02;0.90;;;5.70;99.90;;;;;;5105277;27;20014;-70
2022/04/01 02:45:35;;;;;;;2.20;1.23;;;5.70;99.90;;;;;;5110552;27;20039;-70
2022/04/01 02:48:05;;;;;;;2.58;1.10;;;5.70;99.90;;;;;;5134139;27;20043;-70
2022/04/01 02:50:48;;;;;;;0.82;0.77;;;5.70;99.90;;;;;;5099058;28;20035;-70
2022/04/01 02:53:16;;;;;;;1.30;0.52;;;5.70;99.90;;;;;;5103172;28;20039;-70
2022/04/01 02:55:44;;;;;;;1.95;0.60;;;5.70;99.90;;;;;;5113532;28;20074;-70
2022/04/01 02:58:12;;;;;;;1.35;0.73;;;5.70;99.90;;;;;;5113295;28;20382;-70
2022/04/01 03:00:42;;;;;;;0.98;0.77;;;5.60;99.90;;;;;;5102425;28;20051;-70
2022/04/01 03:03:10;;;;;;;1.00;0.75;;;5.60;99.90;;;;;;5114542;27;20039;-70
2022/04/01 03:05:40;;;;;;;0.95;0.70;;;5.50;99.90;;;;;;5115511;27;20035;-69
2022/04/01 03:08:09;;;;;;;2.80;0.77;;;5.50;99.90;;;;;;5131000;27;20459;-70
2022/04/01 03:10:39;;;;;;;2.88;0.70;;;5.50;99.90;;;;;;5106557;27;20570;-70
2022/04/01 03:13:08;;;;;;;1.25;0.60;;;5.50;99.90;;;;;;5114972;27;20435;-70
2022/04/01 03:15:54;;;;;;;2.65;0.90;;;5.50;99.90;;;;;;5126845;27;20066;-70
2022/04/01 03:18:47;;;;;;;1.55;0.90;;;5.50;99.90;;;;;;5120682;27;20055;-70
2022/04/01 03:21:15;;;;;;;1.50;0.73;;;5.40;99.90;;;;;;5114564;27;20039;-70
2022/04/01 03:23:44;;;;;;;2.47;0.95;;;5.40;99.90;;;;;;5104061;28;20096;-70
2022/04/01 03:26:15;;;;;;;1.10;1.00;;;5.40;99.90;;;;;;5095002;28;20131;-70
2022/04/01 03:28:52;;;;;;;1.35;1.00;;;5.40;99.90;;;;;;5094694;28;20067;-70
2022/04/01 03:31:22;;;;;;;3.20;1.02;;;5.50;99.90;;;;;;5085500;28;20044;-70
2022/04/01 03:33:51;;;;;;;2.00;1.17;;;5.40;99.90;;;;;;5085126;28;20469;-70
2022/04/01 03:36:18;;;;;;;1.50;1.00;;;5.40;99.90;;;;;;5090367;28;20071;-70
2022/04/01 03:38:51;;;;;;;5.75;1.40;;;5.50;99.90;;;;;;5085920;28;20089;-70
2022/04/01 03:41:30;;;;;;;1.52;1.13;;;5.50;99.90;;;;;;5087925;28;20085;-70
2022/04/01 03:44:00;;;;;;;2.72;0.93;;;5.50;99.90;;;;;;5092793;28;20121;-70
2022/04/01 03:46:52;;;;;;;1.95;0.93;;;5.40;99.90;;;;;;5084888;28;20032;-70
2022/04/01 03:49:23;;;;;;;7.25;1.50;;;5.40;99.90;;;;;;5073754;28;20055;-70
2022/04/01 03:51:54;;;;;;;2.97;1.30;;;5.30;99.90;;;;;;5117983;27;20568;-70
2022/04/01 03:54:24;;;;;;;2.65;1.33;;;5.30;99.90;;;;;;5085435;28;20052;-70
2022/04/01 03:57:01;;;;;;;4.70;1.65;;;5.30;99.90;;;;;;5102927;28;20068;-70
2022/04/01 03:59:41;;;;;;;2.83;1.40;;;5.30;99.90;;;;;;5118715;27;20039;-70
2022/04/01 04:02:28;;;;;;;1.60;1.20;;;5.30;99.90;;;;;;5094829;28;20139;-70
2022/04/01 04:04:56;;;;;;;1.13;0.95;;;5.20;99.90;;;;;;5093691;28;20050;-70
2022/04/01 04:07:24;;;;;;;2.33;1.20;;;5.20;99.90;;;;;;5085599;27;20491;-70
2022/04/01 04:09:52;;;;;;;2.17;1.08;;;5.20;99.90;;;;;;5102368;27;20035;-70
2022/04/01 04:12:23;;;;;;;1.38;0.90;;;5.10;99.90;;;;;;5132509;27;20510;-70
2022/04/01 04:15:03;;;;;;;2.75;1.10;;;5.10;99.90;;;;;;5094746;27;20489;-70
2022/04/01 04:17:36;;;;;;;1.33;0.90;;;5.10;99.90;;;;;;5116777;27;20078;-70
2022/04/01 04:20:18;;;;;;;1.75;1.08;;;5.10;99.90;;;;;;5093863;28;20050;-70
2022/04/01 04:23:19;;;;;;;1.88;1.23;;;5.00;99.90;;;;;;5089381;28;20502;-69
2022/04/01 04:26:04;;;;;;;1.30;0.90;;;5.00;99.90;;;;;;5093394;28;20044;-70
2022/04/01 04:28:37;;;;;;;2.13;1.02;;;5.00;99.90;;;;;;5107289;28;20067;-70
2022/04/01 04:31:33;;;;;;;2.67;1.05;;;5.00;99.90;;;;;;5086847;28;20109;-70
2022/04/01 04:34:09;;;;;;;1.80;0.90;;;5.00;99.90;;;;;;5100556;28;20063;-70
2022/04/01 04:36:39;;;;;;;2.15;1.30;;;5.00;99.90;;;;;;5094135;28;20048;-70
2022/04/01 04:39:15;;;;;;;1.42;0.93;;;5.00;99.90;;;;;;5093562;28;20064;-70
2022/04/01 04:41:48;;;;;;;1.23;0.75;;;4.90;99.90;;;;;;5101062;28;20560;-70
2022/04/01 04:44:17;;;;;;;0.95;0.75;;;4.90;99.90;;;;;;5073250;28;20044;-70
2022/04/01 04:46:44;;;;;;;1.10;0.73;;;4.90;99.90;;;;;;5077953;28;20051;-70
2022/04/01 04:49:12;;;;;;;2.60;1.23;;;4.80;99.90;;;;;;5097819;28;20050;-70
2022/04/01 04:51:48;;;;;;;2.78;1.15;;;4.80;99.90;;;;;;5109261;28;20036;-70
2022/04/01 04:54:24;;;;;;;3.17;0.90;;;4.80;99.90;;;;;;5113870;28;20047;-71
2022/04/01 04:57:11;;;;;;;2.95;1.10;;;4.80;99.90;;;;;;5066101;28;20059;-70
2022/04/01 04:59:41;;;;;;;1.27;0.93;;;4.80;99.90;;;;;;5115197;28;20036;-70
2022/04/01 05:02:21;;;;;;;1.50;1.20;;;4.80;99.90;;;;;;5113058;28;20092;-69
2022/04/01 05:05:02;;;;;;;1.52;0.80;;;4.80;99.90;;;;;;5113684;28;20045;-69
2022/04/01 05:08:05;;;;;;;2.05;1.20;;;4.80;99.90;;;;;;5100529;28;20047;-70
2022/04/01 05:11:08;;;;;;;2.15;1.15;;;4.80;99.90;;;;;;5092089;28;20094;-69
2022/04/01 05:14:11;;;;;;;1.60;1.10;;;4.70;99.90;;;;;;5101355;28;20111;-70
2022/04/01 05:16:57;;;;;;;3.13;1.30;;;4.70;99.90;;;;;;5085699;28;20043;-70
2022/04/01 05:19:29;;;;;;;1.73;0.95;;;4.80;99.90;;;;;;5094485;28;20040;-70
2022/04/01 05:22:08;;;;;;;3.17;1.13;;;4.80;99.90;;;;;;5096470;28;20039;-70
2022/04/01 05:24:52;;;;;;;1.45;1.00;;;4.70;99.90;;;;;;5097103;27;20040;-70
2022/04/01 05:27:28;;;;;;;3.53;1.40;;;4.70;99.90;;;;;;5109746;27;20096;-69
2022/04/01 05:30:17;;;;;;;2.28;1.23;;;4.70;99.90;;;;;;5117308;27;20044;-70
2022/04/01 05:33:06;;;;;;;2.40;1.50;;;4.70;99.90;;;;;;5099434;27;20027;-70
2022/04/01 05:35:38;;;;;;;3.13;1.35;;;4.70;99.90;;;;;;5129807;27;20114;-70
2022/04/01 05:38:08;;;;;;;2.03;1.45;;;4.70;99.90;;;;;;5117170;27;20043;-70
2022/04/01 05:40:38;;;;;;;2.83;1.60;;;4.70;99.90;;;;;;5113469;27;20057;-70
2022/04/01 05:43:08;;;;;;;1.77;1.17;;;4.70;99.90;;;;;;5108114;27;20726;-70
2022/04/01 05:45:35;;;;;;;3.13;1.27;;;4.70;99.90;;;;;;5135684;27;20092;-70
2022/04/01 05:48:11;;;;;;;2.70;1.20;;;4.70;99.90;;;;;;5113239;27;20058;-71
2022/04/01 05:50:40;;;;;;;4.30;1.33;;;4.70;99.90;;;;;;5100180;28;20046;-70
2022/04/01 05:53:08;;;;;;;3.00;1.50;;;4.70;99.90;;;;;;5115341;27;20077;-70
2022/04/01 05:55:46;;;;;;;2.42;1.48;;;4.80;99.90;;;;;;5116170;27;20410;-70
2022/04/01 05:58:13;;;;;;;3.05;1.80;;;4.80;99.90;;;;;;5104297;28;20039;-70
2022/04/01 06:00:54;;;;;;;4.18;1.40;;;4.80;99.90;;;;;;5112098;27;20141;-70
2022/04/01 06:04:01;;;;;;;2.58;1.58;;;4.90;99.90;;;;;;5135142;27;20055;-70
2022/04/01 06:06:43;;;;;;;2.95;1.60;;;4.80;99.90;;;;;;5111363;27;20142;-70
2022/04/01 06:09:43;;;;;;;5.00;2.10;;;4.80;99.90;;;;;;5108133;27;20572;-70
2022/04/01 06:12:29;;;;;;;5.82;2.00;;;4.80;99.90;;;;;;5134750;27;20594;-70
2022/04/01 06:15:40;;;;;;;6.13;2.03;;;4.80;99.90;;;;;;5127799;27;20054;-70
2022/04/01 06:18:41;;;;;;;2.13;1.20;;;4.90;99.90;;;;;;5082698;28;20047;-69
2022/04/01 06:21:14;;;;;;;3.95;1.48;;;4.90;99.90;;;;;;5075462;28;20051;-70
2022/04/01 06:24:06;;;;;;;1.88;1.20;;;4.90;99.90;;;;;;5100250;28;20096;-70
2022/04/01 06:26:48;;;;;;;4.22;1.60;;;5.00;99.90;;;;;;5075348;28;20060;-70
2022/04/01 06:29:34;;;;;;;2.45;1.40;;;4.90;99.90;;;;;;5075175;28;20082;-70
2022/04/01 06:32:07;;;;;;;2.28;1.63;;;4.90;99.90;;;;;;5078794;27;20418;-69
2022/04/01 06:34:54;;;;;;;1.50;0.95;;;5.00;99.90;;;;;;5107324;27;20410;-69
2022/04/01 06:37:47;;;;;;;2.08;1.13;;;5.00;99.90;;;;;;5115931;27;20066;-70
2022/04/01 06:40:15;;;;;;;3.97;2.22;;;5.00;99.90;;;;;;5110243;27;20047;-70
2022/04/01 06:42:51;;;;;;;2.45;1.20;;;5.00;99.90;;;;;;5084150;28;20036;-69
2022/04/01 06:45:47;;;;;;;1.75;1.13;;;5.00;99.90;;;;;;5093219;28;20127;-70
2022/04/01 06:48:33;;;;;;;1.58;1.10;;;5.10;99.90;;;;;;5093286;28;20047;-70
2022/04/01 06:51:19;;;;;;;2.40;1.35;;;5.10;99.90;;;;;;5114097;27;20726;-69
2022/04/01 06:54:06;;;;;;;3.60;1.20;;;5.20;99.90;;;;;;5113565;28;20608;-69
2022/04/01 06:56:51;;;;;;;1.55;1.00;;;5.20;99.90;;;;;;5113602;28;20058;-69
2022/04/01 06:59:18;;;;;;;2.88;1.35;;;5.20;99.90;;;;;;5098488;27;20031;-69
2022/04/01 07:01:46;;;;;;;3.92;1.20;;;5.20;99.90;;;;;;5125020;27;20506;-70
2022/04/01 07:04:14;;;;;;;2.83;1.63;;;5.30;99.90;;;;;;5133677;27;20110;-69
2022/04/01 07:06:41;;;;;;;3.10;1.88;;;5.30;99.90;;;;;;5121174;27;20040;-69
2022/04/01 07:09:08;;;;;;;;;;;5.40;99.90;;;;;;5123681;27;20067;-69
2022/04/01 07:11:35;;;;;;;1.83;1.17;;;5.40;99.90;;;;;;5133457;27;20279;-69
2022/04/01 07:14:02;;;;;;;1.95;1.20;;;5.40;99.90;;;;;;5133604;27;20043;-69
2022/04/01 07:16:29;;;;;;;1.58;1.20;;;5.50;99.90;;;;;;5131212;27;20047;-70
2022/04/01 07:18:56;;;;;;;1.63;1.00;;;5.50;99.90;;;;;;5124881;27;20043;-69
2022/04/01 07:21:23;;;;;;;1.45;0.98;;;5.50;99.90;;;;;;5133575;27;20531;-69
2022/04/01 07:23:51;;;;;;;2.55;1.10;;;5.60;99.90;;;;;;5128012;27;20043;-69
2022/04/01 07:26:19;;;;;;;2.05;1.02;;;5.60;99.90;;;;;;5124888;27;20091;-69
2022/04/01 07:28:47;;;;;;;1.27;0.70;;;5.60;99.90;;;;;;5133475;27;20039;-69
2022/04/01 07:34:39;;;;;;;2.90;1.20;;;5.70;99.90;;;;;;5120479;22;20043;-68
2022/04/01 07:37:07;;;;;;;1.80;0.98;;;5.80;99.90;;;;;;5102011;28;20055;-68
2022/04/01 07:39:35;;;;;;;1.70;1.15;;;5.90;99.90;;;;;;5110213;27;20028;-68
2022/04/01 07:42:03;;;;;;;2.65;1.33;;;6.00;99.90;;;;;;5110448;28;20399;-68
2022/04/01 07:44:31;;;;;;;3.15;1.38;;;6.00;99.90;;;;;;5098249;28;20039;-68
2022/04/01 07:46:59;;;;;;;2.35;1.35;;;6.10;99.90;;;;;;5110041;28;20040;-69
2022/04/01 07:49:26;;;;;;;1.25;0.93;;;6.20;99.90;;;;;;5111750;28;20434;-68
2022/04/01 07:52:15;;;;;;;1.45;0.90;;;6.30;99.90;;;;;;5103144;28;20452;-68
2022/04/01 07:54:47;;;;;;;0.60;0.40;;;6.40;99.90;;;;;;5112135;28;20047;-69
2022/04/01 07:57:15;;;;;;;0.80;0.70;;;6.40;99.90;;;;;;5112293;28;20069;-68
2022/04/01 07:59:42;;;;;;;0.70;0.57;;;6.40;99.90;;;;;;5108561;28;20036;-69
2022/04/01 08:02:09;;;;;;;;;;;6.40;99.90;;;;;;5103908;28;20071;-69
2022/04/01 08:04:36;;;;;;;2.00;1.15;;;6.30;99.90;;;;;;5112068;28;20432;-69
2022/04/01 08:07:07;;;;;;;1.70;0.93;;;6.30;99.90;;;;;;5110995;28;20060;-69
2022/04/01 08:09:35;;;;;;;2.92;0.82;;;6.10;99.90;;;;;;5100120;28;20044;-69
2022/04/01 08:12:03;;;;;;;1.10;0.70;;;6.40;99.90;;;;;;5110258;28;20048;-69
2022/04/01 08:14:30;;;;;;;1.48;0.63;;;6.50;99.90;;;;;;5112154;28;20487;-68
2022/04/01 08:16:57;;;;;;;0.80;0.60;;;6.50;99.90;;;;;;5111164;28;20531;-69
2022/04/01 08:19:24;;;;;;;2.35;0.65;;;6.50;99.90;;;;;;5099886;28;20032;-69
2022/04/01 08:21:52;;;;;;;0.95;0.50;;;6.40;99.90;;;;;;5108161;28;20044;-69
2022/04/01 08:24:19;;;;;;;1.13;0.90;;;6.50;99.90;;;;;;5111969;28;20050;-69
2022/04/01 08:26:47;;;;;;;0.77;0.77;;;6.60;99.90;;;;;;5104380;28;20119;-69
2022/04/01 08:29:14;;;;;;;2.03;0.75;;;6.60;99.90;;;;;;5103438;28;20035;-69
2022/04/01 08:31:42;;;;;;;0.93;0.70;;;6.80;99.90;;;;;;5111568;28;20104;-69
2022/04/01 08:34:09;;;;;;;;;;;6.90;99.90;;;;;;5111817;28;20538;-69
2022/04/01 08:36:36;;;;;;;1.35;0.90;;;7.10;99.90;;;;;;5104798;28;19973;-69
2022/04/01 08:39:04;;;;;;;1.15;0.73;;;7.20;99.90;;;;;;5110084;28;20065;-69
2022/04/01 08:41:31;;;;;;;0.82;0.68;;;7.30;99.90;;;;;;5111549;28;20040;-69
2022/04/01 08:43:58;;;;;;;0.52;0.52;;;7.40;99.90;;;;;;5108361;28;20051;-69
2022/04/01 08:46:25;;;;;;;0.68;0.55;;;7.30;99.90;;;;;;5103337;28;20069;-69
2022/04/01 08:48:53;;;;;;;1.05;0.75;;;7.40;99.90;;;;;;5111758;28;20051;-69
2022/04/01 08:51:20;;;;;;;0.95;0.80;;;7.30;99.90;;;;;;5111484;28;20043;-69
2022/04/01 08:53:48;;;;;;;0.95;0.70;;;7.20;99.90;;;;;;5103528;28;20036;-69
2022/04/01 08:56:19;;;;;;;0.52;0.52;;;7.00;99.90;;;;;;5116109;28;20518;-69
2022/04/01 08:58:46;;;;;;;0.80;0.80;;;6.90;99.90;;;;;;5115735;28;20035;-69
2022/04/01 09:01:14;;;;;;;1.00;0.90;;;6.80;99.90;;;;;;5115160;28;20118;-69
2022/04/01 09:03:42;;;;;;;1.10;0.77;;;6.70;99.90;;;;;;5103436;28;20483;-69
2022/04/01 09:06:10;;;;;;;1.52;0.80;;;6.80;99.90;;;;;;5114876;28;20043;-69
2022/04/01 09:08:42;;;;;;;2.25;0.60;;;6.70;99.90;;;;;;5115687;28;20035;-69
2022/04/01 09:11:15;;;;;;;0.88;0.52;;;6.70;99.90;;;;;;5108173;28;20059;-69
2022/04/01 09:13:50;;;;;;;0.90;0.50;;;6.60;99.90;;;;;;5110712;28;20047;-69
2022/04/01 09:16:32;;;;;;;0.65;0.65;;;6.60;99.90;;;;;;5115689;28;20058;-69
2022/04/01 09:19:02;;;;;;;0.75;0.60;;;6.60;99.90;;;;;;5115452;28;20036;-69
2022/04/01 09:21:32;;;;;;;3.95;0.60;;;6.70;99.90;;;;;;5104112;28;20039;-69
2022/04/01 09:24:01;;;;;;;0.95;0.68;;;6.70;99.90;;;;;;5113084;28;20046;-68
2022/04/01 09:26:31;;;;;;;1.27;0.70;;;6.70;99.90;;;;;;5115435;28;20564;-69
2022/04/01 09:28:59;;;;;;;1.38;0.65;;;6.70;99.90;;;;;;5113899;28;20047;-69
2022/04/01 09:31:32;;;;;;;1.15;0.80;;;6.70;99.90;;;;;;5106527;28;20044;-68
2022/04/01 09:34:10;;;;;;;1.77;0.68;;;6.70;99.90;;;;;;5114800;28;20040;-69
2022/04/01 09:36:41;;;;;;;3.67;0.60;;;6.80;99.90;;;;;;5114118;28;20122;-69
2022/04/01 09:39:13;;;;;;;0.50;0.45;;;6.80;99.90;;;;;;5105526;28;20046;-69
2022/04/01 09:41:46;;;;;;;0.52;0.40;;;6.60;99.90;;;;;;5114731;28;20100;-68
2022/04/01 09:44:30;;;;;;;1.55;0.70;;;6.60;99.90;;;;;;5114850;28;20046;-68
2022/04/01 09:47:01;;;;;;;1.08;0.55;;;6.80;99.90;;;;;;5108095;28;20048;-68
2022/04/01 09:49:30;;;;;;;1.35;0.68;;;6.90;99.90;;;;;;5108155;28;20054;-69
2022/04/01 09:52:15;;;;;;;1.42;0.70;;;7.00;99.90;;;;;;5114618;28;20046;-69
2022/04/01 09:54:46;;;;;;;1.08;0.70;;;7.00;99.90;;;;;;5110637;28;20079;-68
2022/04/01 09:57:14;;;;;;;1.05;0.60;;;7.00;99.90;;;;;;5106265;28;20051;-69
2022/04/01 09:59:46;;;;;;;1.77;0.60;;;7.20;99.90;;;;;;5114455;28;20088;-68
2022/04/01 10:02:13;;;;;;;2.05;0.43;;;7.10;99.90;;;;;;5114418;28;20047;-69
2022/04/01 10:04:40;;;;;;;0.88;0.70;;;7.10;99.90;;;;;;5109245;28;20048;-69
2022/04/01 10:07:08;;;;;;;;;;;7.10;99.90;;;;;;5106485;28;20042;-69
2022/04/01 10:09:37;;;;;;;;;;;7.20;99.90;;;;;;5114801;28;20010;-69
2022/04/01 10:12:27;;;;;;;1.48;0.45;;;7.30;99.90;;;;;;5113908;28;19980;-69
2022/04/01 10:14:57;;;;;;;1.45;0.50;;;7.20;99.90;;;;;;5112443;28;20035;-70
2022/04/01 10:17:28;;;;;;;0.90;0.45;;;6.90;99.90;;;;;;5107205;28;20445;-69
2022/04/01 10:19:57;;;;;;;1.15;0.50;;;6.70;99.90;;;;;;5113892;28;20071;-69
2022/04/01 10:22:26;;;;;;;1.38;0.98;;;6.70;99.90;;;;;;5106046;28;20039;-66
2022/04/01 10:25:03;;;;;;;0.70;0.60;;;6.80;99.90;;;;;;5111245;27;20073;-69
2022/04/01 10:27:39;;;;;;;1.05;0.57;;;6.80;99.90;;;;;;5114266;28;20035;-68
2022/04/01 10:30:08;;;;;;;1.08;0.68;;;6.80;99.90;;;;;;5114096;28;20044;-69
2022/04/01 10:32:49;;;;;;;2.05;0.70;;;6.70;99.90;;;;;;5103947;28;20059;-69
2022/04/01 10:35:26;;;;;;;1.70;0.70;;;6.60;99.90;;;;;;5093498;28;20088;-69
2022/04/01 10:38:05;;;;;;;0.70;0.60;;;6.70;99.90;;;;;;5093668;28;20059;-69
2022/04/01 10:40:35;;;;;;;1.42;0.60;;;6.80;99.90;;;;;;5093251;28;20500;-69
2022/04/01 10:43:15;;;;;;;7.90;5.72;;;6.90;99.90;;;;;;5103567;28;20734;-69
2022/04/01 10:45:56;;;;;;;0.65;0.55;;;7.00;99.90;;;;;;5114123;28;20380;-68
2022/04/01 10:51:38;;;;;;;1.73;0.43;;;6.80;99.90;;;;;;5104223;28;20036;-69
2022/04/01 10:54:14;;;;;;;0.32;0.30;;;6.70;99.90;;;;;;5113609;28;20114;-68
2022/04/01 10:56:43;;;;;;;0.70;0.38;;;6.70;99.90;;;;;;5095617;28;20062;-69
2022/04/01 10:59:15;;;;;;;0.82;0.50;;;6.70;99.90;;;;;;5107699;28;20074;-68
2022/04/01 11:01:52;;;;;;;1.15;0.40;;;6.70;99.90;;;;;;5108251;28;20031;-68
2022/04/01 11:04:20;;;;;;;1.02;0.55;;;6.70;99.90;;;;;;5113499;28;20040;-68
2022/04/01 11:07:01;;;;;;;5.40;0.60;;;6.60;99.90;;;;;;5105204;28;20115;-68
2022/04/01 11:09:50;;;;;;;0.40;0.40;;;6.60;99.90;;;;;;5101131;28;20051;-68
2022/04/01 11:12:21;;;;;;;1.23;0.50;;;6.50;99.90;;;;;;5092592;28;20047;-68
2022/04/01 11:14:55;;;;;;;1.77;0.70;;;6.50;99.90;;;;;;5075004;28;20048;-69
2022/04/01 11:17:35;;;;;;;0.65;0.60;;;6.40;99.90;;;;;;5101073;28;20059;-69
2022/04/01 11:20:05;;;;;;;0.80;0.50;;;6.40;99.90;;;;;;5111172;28;20377;-69
2022/04/01 11:22:56;;;;;;;0.50;0.50;;;6.50;99.90;;;;;;5111591;28;20250;-69
2022/04/01 11:25:27;;;;;;;0.60;0.40;;;6.50;99.90;;;;;;5093021;28;20052;-69
2022/04/01 11:27:56;;;;;;;0.50;0.40;;;6.50;99.90;;;;;;5092656;28;20040;-68
2022/04/01 11:30:25;;;;;;;0.98;0.50;;;6.50;99.90;;;;;;5092539;28;20048;-69
2022/04/01 11:32:58;;;;;;;0.75;0.50;;;6.50;99.90;;;;;;5100585;28;20523;-69
2022/04/01 11:35:35;;;;;;;0.75;0.50;;;6.60;99.90;;;;;;5112739;28;20047;-68
2022/04/01 11:38:03;;;;;;;0.95;0.50;;;6.70;99.90;;;;;;5112902;28;20035;-68
2022/04/01 11:40:32;;;;;;;2.05;0.60;;;6.60;99.90;;;;;;5107598;28;20086;-69
2022/04/01 11:43:18;;;;;;;0.60;0.40;;;6.70;99.90;;;;;;5101460;28;20495;-69
2022/04/01 11:45:47;;;;;;;1.58;0.70;;;6.60;99.90;;;;;;5112707;28;20035;-69
2022/04/01 11:48:28;;;;;;;2.40;0.60;;;6.60;99.90;;;;;;5112558;28;20515;-69
2022/04/01 11:50:58;;;;;;;2.28;0.50;;;6.60;99.90;;;;;;5108928;28;20134;-68
2022/04/01 11:53:30;;;;;;;0.85;0.55;;;6.50;99.90;;;;;;5105432;28;20039;-69
2022/04/01 11:56:01;;;;;;;0.82;0.65;;;6.50;99.90;;;;;;5112523;28;20043;-69
2022/04/01 11:58:54;;;;;;;0.68;0.50;;;6.50;99.90;;;;;;5112352;28;20058;-68
2022/04/01 12:01:28;;;;;;;0.75;0.57;;;6.50;99.90;;;;;;5100741;28;20035;-68
2022/04/01 12:04:07;;;;;;;1.05;0.70;;;6.40;99.90;;;;;;5109432;28;20039;-69
2022/04/01 12:09:29;;;;;;;1.77;0.45;;;6.40;99.90;;;;;;5106189;28;20035;-68
2022/04/01 12:11:58;;;;;;;0.80;0.40;;;6.30;99.90;;;;;;5109448;28;20040;-69
2022/04/01 12:14:25;;;;;;;0.52;0.30;;;6.30;99.90;;;;;;5112277;28;20379;-69
2022/04/01 12:16:53;;;;;;;1.77;0.50;;;6.30;99.90;;;;;;5105680;28;20434;-68
2022/04/01 12:19:21;;;;;;;0.98;0.47;;;6.20;99.90;;;;;;5103466;28;20054;-69
2022/04/01 12:21:55;;;;;;;0.85;0.47;;;6.20;99.90;;;;;;5111615;28;20047;-68
2022/04/01 12:24:25;;;;;;;0.40;0.40;;;6.20;99.90;;;;;;5112066;28;20194;-68
2022/04/01 12:26:53;;;;;;;0.80;0.50;;;6.10;99.90;;;;;;5105762;28;20498;-68
2022/04/01 12:29:22;;;;;;;2.83;0.55;;;6.20;99.90;;;;;;5104386;28;20505;-68
2022/04/01 12:31:52;;;;;;;0.93;0.50;;;6.10;99.90;;;;;;5111594;28;20039;-69
2022/04/01 12:34:20;;;;;;;2.40;0.55;;;6.20;99.90;;;;;;5106842;28;20042;-68
2022/04/01 12:36:53;;;;;;;2.53;0.30;;;6.20;99.90;;;;;;5103429;28;20394;-69
2022/04/01 12:39:20;;;;;;;0.60;0.43;;;6.20;99.90;;;;;;5093928;28;20545;-69
2022/04/01 12:41:56;;;;;;;0.40;0.40;;;6.20;99.90;;;;;;5104993;28;20116;-69
2022/04/01 12:44:29;;;;;;;0.32;0.30;;;6.10;99.90;;;;;;5099621;28;20040;-69
2022/04/01 12:46:59;;;;;;;0.65;0.40;;;6.10;99.90;;;;;;5091434;28;20051;-69
2022/04/01 12:49:28;;;;;;;0.98;0.73;;;6.20;99.90;;;;;;5091521;28;20044;-68
2022/04/01 12:52:02;;;;;;;0.43;0.40;;;6.20;99.90;;;;;;5099073;28;20036;-70
2022/04/01 12:54:49;;;;;;;1.10;0.50;;;6.10;99.90;;;;;;5105295;28;20449;-69
2022/04/01 12:57:19;;;;;;;0.65;0.52;;;6.10;99.90;;;;;;5111812;28;20541;-69
2022/04/01 12:59:49;;;;;;;0.63;0.40;;;6.10;99.90;;;;;;5111705;28;20053;-69
2022/04/01 13:02:17;;;;;;;1.85;0.43;;;6.10;99.90;;;;;;5107072;28;20077;-68
2022/04/01 13:04:51;;;;;;;0.80;0.50;;;6.10;99.90;;;;;;5107014;28;20048;-69
2022/04/01 13:07:39;;;;;;;1.05;0.60;;;6.00;99.90;;;;;;5093478;28;20407;-69
2022/04/01 13:10:15;;;;;;;3.08;0.80;;;6.00;99.90;;;;;;5102870;28;20061;-69
2022/04/01 13:12:47;;;;;;;1.30;0.45;;;5.90;99.90;;;;;;5105753;28;20119;-69
2022/04/01 13:15:17;;;;;;;1.45;0.73;;;5.90;99.90;;;;;;5102615;28;20051;-69
2022/04/01 13:17:52;;;;;;;0.60;0.60;;;5.90;99.90;;;;;;5111729;28;20047;-69
2022/04/01 13:20:28;;;;;;;0.65;0.50;;;5.90;99.90;;;;;;5104916;28;20032;-69
2022/04/01 13:22:55;;;;;;;1.00;0.70;;;5.90;99.90;;;;;;5093182;28;20094;-69
2022/04/01 13:25:25;;;;;;;1.45;0.50;;;5.90;99.90;;;;;;5103667;28;20035;-69
2022/04/01 13:27:52;;;;;;;2.17;0.40;;;5.90;99.90;;;;;;5108261;28;20479;-68
2022/04/01 13:30:19;;;;;;;1.85;0.80;;;6.00;99.90;;;;;;5094580;28;20028;-69
2022/04/01 13:32:46;;;;;;;2.38;0.80;;;6.00;99.90;;;;;;5093875;28;20040;-69
2022/04/01 13:35:13;;;;;;;1.00;0.75;;;6.00;99.90;;;;;;5102968;28;20758;-69
2022/04/01 13:37:41;;;;;;;0.73;0.65;;;6.00;99.90;;;;;;5117303;22;20047;-72
2022/04/01 13:40:09;;;;;;;1.25;0.90;;;6.00;99.90;;;;;;5097154;28;20055;-71
2022/04/01 13:42:36;;;;;;;;;;;5.90;99.90;;;;;;5109614;28;20047;-72